TFM - Tactical Decision Aid
ID: Runway Winds: CIG/VIS Threshold:

KFLL - Ft Lauderdale-Hollyw, FL, US

Updated at: 2037 UTC 17 Jun 2019
Latest TAF at: 1727 UTC 17 Jun 2019

TAF Board

Time2028Z 17/21Z 17/22Z 17/23Z 18/00Z 18/01Z 18/02Z 18/03Z 18/04Z 18/05Z 18/06Z 18/07Z 18/08Z 18/09Z>>
Type OBS PRVL PRVL PRVL PRVL PRVL PRVL PRVL PRVL PRVL PRVL PRVL PRVL PRVL
VIS 0.5 >6 >6 >6 >6 >6 >6 >6 >6 >6 >6 >6 >6 >6
CIG 10 250 250 250 70 70 70 70 70 70 70 70 70 70
Cover OVC BKN BKN BKN BKN BKN BKN BKN BKN BKN BKN BKN BKN BKN
FltCat LIFR VFR VFR VFR VFR VFR VFR VFR VFR VFR VFR VFR VFR VFR
WX +TSRA FG SHRA VCTS SHRA VCTS SHRA VCTS VCSH VCSH VCSH VCSH VCSH VCSH VCSH VCSH VCSH VCSH
WDir 250 160 160 160 150 150 150 150 150 150 150 150 150 150
WSpd 12 11 11 11 6 6 6 6 6 6 6 6 6 6
WGst -- -- -- -- -- -- -- -- -- -- -- -- -- --

TDA Impact Legend

  None Marginal Slight Moderate High
Visibility (sm) >5 3≤X≤5 2≤X<3 0.75≤X<2 <0.75
Ceiling (100 ft) >30 10≤X≤30 6≤X<10 3≤X<6 <3
Wind Speed (kt) <15 15≤X<25 25≤X<30 ≥30
Wind Gust (kt) <15 15≤X<25 25≤X<35 ≥35
Weather No Wx Reported VCTS -TS,-FZRA TS,FZRA +TS,+FZRA
TAF
KFLL 171727Z 1718/1824 16011KT P6SM SHRA VCTS SCT040CB BKN250
  FM180000 15006KT P6SM VCSH SCT025 BKN070
  FM181400 20012KT P6SM VCTS SCT030CB BKN050


METAR
KFLL 172028Z 25012KT 1/2SM +TSRA FG BKN010 BKN020CB OVC039 22/21 A3007 RMK AO2 LTG DSNT SW AND W RAE1955B17 TSB27 OCNL LTGICCG SW-W TS SW-W MOV NE P0057 T02220206
KFLL 172019Z 1/4SM VCTS +RA BR SCT008 BKN017CB BKN060 BKN130 26/23 A3007 RMK AO2 LTG DSNT SW RAE1955B17 CB SE-SW-W MOV NE P0001 T02560228
KFLL 172015Z 00000KT 8SM VCTS SCT008 BKN017CB BKN060 BKN130 26/23 A3006 RMK AO2 LTG DSNT SW RAE1955 CB S-W MOV NE P0000 T02610233
KFLL 171953Z 04003KT 10SM VCTS -RA SCT019 BKN070 BKN095 26/24 A3006 RMK AO2 LTG DSNT S-W TSE43 SLP177 CB DSNT S-W MOV NE P0001 T02610239
KFLL 171949Z 06003KT 10SM VCTS -RA SCT019 BKN070 BKN095 26/23 A3006 RMK AO2 LTG DSNT S-W TSE43 CB DSNT S-W MOV NE P0001
KFLL 171853Z 00000KT 10SM -RA FEW025 FEW055 BKN085 OVC150 25/23 A3005 RMK AO2 SLP176 P0007 T02500233
KFLL 171753Z COR 25003KT 7SM -RA FEW025 BKN110 OVC150 24/23 A3007 RMK AO2 TSE00 SLP182 CB DSNT E MOV NE P0004 60027 T02440228 10278 20244 51007

Radar Display
Forecast Discussion